createdAt,value
2022-08-27T00:01:38.162Z,69.06
2022-08-27T00:04:05.057Z,68.41
2022-08-27T00:06:32.039Z,69.22
2022-08-27T00:09:00.001Z,69.04
2022-08-27T00:11:26.959Z,69.22
2022-08-27T00:13:54.030Z,68.73
2022-08-27T00:16:21.042Z,71.23
2022-08-27T00:18:48.588Z,70.19
2022-08-27T00:21:17.321Z,70.63
2022-08-27T00:23:44.528Z,69.27
2022-08-27T00:26:12.152Z,69.18
2022-08-27T00:28:40.042Z,69.78
2022-08-27T00:31:07.342Z,69.04
2022-08-27T00:33:34.982Z,69.09
2022-08-27T00:36:05.196Z,69.12
2022-08-27T00:38:32.299Z,69.39
2022-08-27T00:41:01.132Z,69.33
2022-08-27T00:43:32.614Z,69.07
2022-08-27T00:46:14.586Z,68.85
2022-08-27T00:48:41.566Z,69.37
2022-08-27T00:51:08.583Z,69.34
2022-08-27T00:53:36.392Z,69.57
2022-08-27T00:56:13.319Z,69.40
2022-08-27T00:58:45.372Z,69.71
2022-08-27T01:01:17.746Z,69.49
2022-08-27T01:03:48.201Z,69.24
2022-08-27T01:06:17.285Z,69.36
2022-08-27T01:08:59.654Z,68.92
2022-08-27T01:11:26.641Z,68.66
2022-08-27T01:14:00.049Z,68.60
2022-08-27T01:16:35.853Z,68.31
2022-08-27T01:19:08.721Z,67.68
2022-08-27T01:22:11.128Z,67.87
2022-08-27T01:24:50.713Z,67.46
2022-08-27T01:27:21.858Z,68.23
2022-08-27T01:29:49.181Z,67.65
2022-08-27T01:32:24.142Z,67.46
2022-08-27T01:34:51.543Z,67.35
2022-08-27T01:37:23.956Z,67.61
2022-08-27T01:39:52.542Z,67.31
2022-08-27T01:42:23.720Z,67.36
2022-08-27T01:45:05.637Z,67.32
2022-08-27T01:47:33.985Z,67.48
2022-08-27T01:50:03.985Z,67.54
2022-08-27T01:52:31.445Z,67.36
2022-08-27T01:54:59.054Z,67.30
2022-08-27T01:57:26.451Z,67.73
2022-08-27T01:59:56.893Z,67.26
2022-08-27T02:02:23.996Z,67.42
2022-08-27T02:04:51.684Z,67.43
2022-08-27T02:07:18.998Z,67.41
2022-08-27T02:09:45.949Z,67.81
2022-08-27T02:12:12.836Z,67.45
2022-08-27T02:14:39.754Z,66.94
2022-08-27T02:17:06.640Z,67.24
2022-08-27T02:19:33.580Z,67.06
2022-08-27T02:22:00.716Z,66.96
2022-08-27T02:24:29.016Z,66.90
2022-08-27T02:26:57.125Z,67.08
2022-08-27T02:29:25.678Z,66.92
2022-08-27T02:31:52.714Z,66.84
2022-08-27T02:34:19.725Z,67.00
2022-08-27T02:36:47.503Z,67.23
2022-08-27T02:39:14.389Z,66.88
2022-08-27T02:41:41.297Z,67.48
2022-08-27T02:44:10.280Z,67.11
2022-08-27T02:46:39.510Z,67.63
2022-08-27T02:49:06.492Z,68.42
2022-08-27T02:51:33.693Z,68.21
2022-08-27T02:54:02.422Z,68.37
2022-08-27T02:56:30.308Z,67.84
2022-08-27T02:58:57.760Z,67.82
2022-08-27T03:01:24.775Z,68.17
2022-08-27T03:03:52.489Z,67.52
2022-08-27T03:06:19.469Z,67.80
2022-08-27T03:08:52.661Z,67.90
2022-08-27T03:11:23.005Z,68.08
2022-08-27T03:13:50.765Z,68.01
2022-08-27T03:16:17.778Z,68.09
2022-08-27T03:18:45.323Z,68.46
2022-08-27T03:21:21.336Z,68.68
2022-08-27T03:23:51.405Z,68.53
2022-08-27T03:26:19.777Z,68.65
2022-08-27T03:28:47.814Z,68.53
2022-08-27T03:31:27.058Z,68.36
2022-08-27T03:34:07.383Z,68.23
2022-08-27T03:36:34.248Z,68.59
2022-08-27T03:39:01.118Z,68.75
2022-08-27T03:41:54.230Z,69.05
2022-08-27T03:44:21.306Z,69.13
2022-08-27T03:46:50.272Z,69.21
2022-08-27T03:49:20.323Z,68.97
2022-08-27T03:51:51.375Z,69.70
2022-08-27T03:54:18.749Z,69.59
2022-08-27T03:56:45.583Z,69.75
2022-08-27T03:59:12.627Z,70.03
2022-08-27T04:01:39.522Z,70.07
2022-08-27T04:04:06.794Z,70.05
2022-08-27T04:06:35.398Z,69.21
2022-08-27T04:09:04.002Z,69.98
2022-08-27T04:11:34.378Z,69.91
2022-08-27T04:14:06.929Z,69.93
2022-08-27T04:16:48.045Z,70.63
2022-08-27T04:19:17.763Z,70.07
2022-08-27T04:21:44.614Z,70.07
2022-08-27T04:24:12.093Z,69.78
2022-08-27T04:26:42.530Z,69.84
2022-08-27T04:29:09.565Z,69.93
2022-08-27T04:31:36.433Z,69.24
2022-08-27T04:34:04.968Z,69.30
2022-08-27T04:36:31.808Z,68.79
2022-08-27T04:38:58.727Z,69.36
2022-08-27T04:41:27.482Z,69.13
2022-08-27T04:43:57.656Z,69.54
2022-08-27T04:46:28.921Z,69.18
2022-08-27T04:48:58.460Z,69.39
2022-08-27T04:51:26.948Z,69.37
2022-08-27T04:53:54.201Z,68.95
2022-08-27T04:56:23.680Z,69.54
2022-08-27T04:58:53.357Z,69.03
2022-08-27T05:01:27.397Z,69.60
2022-08-27T05:03:55.507Z,69.45
2022-08-27T05:06:23.182Z,69.82
2022-08-27T05:08:52.365Z,69.40
2022-08-27T05:11:21.509Z,69.08
2022-08-27T05:13:48.556Z,69.53
2022-08-27T05:16:21.984Z,69.35
2022-08-27T05:18:51.605Z,69.41
2022-08-27T05:21:30.986Z,68.72
2022-08-27T05:24:02.043Z,68.79
2022-08-27T05:26:30.696Z,69.74
2022-08-27T05:29:00.476Z,69.17
2022-08-27T05:31:28.387Z,68.51
2022-08-27T05:33:57.001Z,68.63
2022-08-27T05:36:31.514Z,69.05
2022-08-27T05:39:01.210Z,68.67
2022-08-27T05:41:34.101Z,68.43
2022-08-27T05:44:30.247Z,68.85
2022-08-27T05:46:56.199Z,68.60
2022-08-27T05:49:23.131Z,68.76
2022-08-27T05:51:50.068Z,68.70
2022-08-27T05:54:21.162Z,69.05
2022-08-27T05:56:49.753Z,68.86
2022-08-27T05:59:35.816Z,68.76
2022-08-27T06:02:05.920Z,68.77
2022-08-27T06:04:32.910Z,69.25
2022-08-27T06:06:59.735Z,68.90
2022-08-27T06:09:29.297Z,68.53
2022-08-27T06:11:58.562Z,68.38
2022-08-27T06:14:26.384Z,68.78
2022-08-27T06:16:53.287Z,67.81
2022-08-27T06:19:20.232Z,67.69
2022-08-27T06:22:01.245Z,68.22
2022-08-27T06:24:36.400Z,68.10
2022-08-27T06:27:03.390Z,68.40
2022-08-27T06:29:30.261Z,69.46
2022-08-27T06:31:57.119Z,69.76
2022-08-27T06:34:24.081Z,70.00
2022-08-27T06:36:50.955Z,70.50
2022-08-27T06:39:17.858Z,70.10
2022-08-27T06:41:45.489Z,69.57
2022-08-27T06:44:13.963Z,69.72
2022-08-27T06:46:42.784Z,69.37
2022-08-27T06:49:10.587Z,69.03
2022-08-27T06:51:40.165Z,68.98
2022-08-27T06:54:11.892Z,68.51
2022-08-27T06:56:40.147Z,68.93
2022-08-27T06:59:11.737Z,68.44
2022-08-27T07:01:42.475Z,68.23
2022-08-27T07:04:16.625Z,68.75
2022-08-27T07:06:44.036Z,68.44
2022-08-27T07:09:11.150Z,68.41
2022-08-27T07:11:38.785Z,68.22
2022-08-27T07:14:07.116Z,67.66
2022-08-27T07:16:34.414Z,67.74
2022-08-27T07:19:05.059Z,67.67
2022-08-27T07:21:34.177Z,67.69
2022-08-27T07:24:05.073Z,67.36
2022-08-27T07:26:39.288Z,67.78
2022-08-27T07:29:09.206Z,67.27
2022-08-27T07:31:36.142Z,67.36
2022-08-27T07:34:04.636Z,67.05
2022-08-27T07:36:32.649Z,67.20
2022-08-27T07:39:01.159Z,66.47
2022-08-27T07:41:53.233Z,65.83
2022-08-27T07:44:28.031Z,65.49
2022-08-27T07:46:58.707Z,65.13
2022-08-27T07:49:28.585Z,65.39
2022-08-27T07:51:55.612Z,64.51
2022-08-27T07:54:23.114Z,64.71
2022-08-27T07:56:55.123Z,63.99
2022-08-27T07:59:24.329Z,63.64
2022-08-27T08:01:52.410Z,64.05
2022-08-27T08:04:20.635Z,64.15
2022-08-27T08:06:48.963Z,63.78
2022-08-27T08:09:16.030Z,64.13
2022-08-27T08:11:42.958Z,63.60
2022-08-27T08:14:09.951Z,63.49
2022-08-27T08:16:36.856Z,63.31
2022-08-27T08:19:04.014Z,64.27
2022-08-27T08:21:30.934Z,64.71
2022-08-27T08:23:58.152Z,64.22
2022-08-27T08:26:25.065Z,65.08
2022-08-27T08:28:52.087Z,64.17
2022-08-27T08:31:19.105Z,64.04
2022-08-27T08:33:47.989Z,63.70
2022-08-27T08:36:17.176Z,63.68
2022-08-27T08:38:47.227Z,63.72
2022-08-27T08:41:49.198Z,63.51
2022-08-27T08:44:36.554Z,64.05
2022-08-27T08:47:12.370Z,63.97
2022-08-27T08:50:22.859Z,63.05
2022-08-27T08:53:29.725Z,63.45
2022-08-27T08:56:02.685Z,63.38
2022-08-27T08:58:51.953Z,62.73
2022-08-27T09:01:21.750Z,62.47
2022-08-27T09:04:04.677Z,61.76
2022-08-27T09:07:28.211Z,60.65
2022-08-27T09:10:04.144Z,59.68
2022-08-27T09:12:33.195Z,59.75
2022-08-27T09:15:05.906Z,59.27
2022-08-27T09:17:36.635Z,59.10
2022-08-27T09:20:05.494Z,58.77
2022-08-27T09:23:04.858Z,58.40
2022-08-27T09:25:36.725Z,57.94
2022-08-27T09:28:33.978Z,57.96
2022-08-27T09:31:09.565Z,57.48
2022-08-27T09:33:54.798Z,56.34
2022-08-27T09:36:25.028Z,55.60
2022-08-27T09:39:01.764Z,56.23
2022-08-27T09:41:35.615Z,56.28
2022-08-27T09:44:11.791Z,55.83
2022-08-27T09:46:39.349Z,55.88
2022-08-27T09:49:15.514Z,55.99
2022-08-27T09:51:46.710Z,55.89
2022-08-27T09:54:41.265Z,55.67
2022-08-27T09:57:10.846Z,55.69
2022-08-27T09:59:49.805Z,55.80
2022-08-27T10:02:21.312Z,55.50
2022-08-27T10:04:52.607Z,55.35
2022-08-27T10:07:31.691Z,56.00
2022-08-27T10:10:13.433Z,55.99
2022-08-27T10:13:17.474Z,56.22
2022-08-27T10:16:18.113Z,56.46
2022-08-27T10:19:04.999Z,55.87
2022-08-27T10:22:05.683Z,55.37
2022-08-27T10:24:55.505Z,54.24
2022-08-27T10:27:46.888Z,54.22
2022-08-27T10:30:44.044Z,53.54
2022-08-27T10:33:23.708Z,53.09
2022-08-27T10:36:23.322Z,52.14
2022-08-27T10:39:05.987Z,51.73
2022-08-27T10:41:44.780Z,50.31
2022-08-27T10:44:37.692Z,50.43
2022-08-27T10:47:15.860Z,49.46
2022-08-27T10:50:01.930Z,50.06
2022-08-27T10:52:40.960Z,49.38
2022-08-27T10:55:32.447Z,48.26
2022-08-27T10:59:08.704Z,47.19
2022-08-27T11:02:11.274Z,46.58
2022-08-27T11:04:48.878Z,46.59
2022-08-27T11:07:30.790Z,46.26
2022-08-27T11:10:05.011Z,46.80
2022-08-27T11:12:38.828Z,46.71
2022-08-27T11:15:14.487Z,45.88
2022-08-27T11:17:45.695Z,45.16
2022-08-27T11:20:26.194Z,44.14
2022-08-27T11:22:58.048Z,44.53
2022-08-27T11:25:52.964Z,44.52
2022-08-27T11:28:29.824Z,45.84
2022-08-27T11:31:38.321Z,46.05
2022-08-27T11:34:52.490Z,47.59
2022-08-27T11:37:28.987Z,48.37
2022-08-27T11:40:18.804Z,47.59
2022-08-27T11:43:03.118Z,47.31
2022-08-27T11:45:38.594Z,47.84
2022-08-27T11:48:29.475Z,49.05
2022-08-27T11:51:04.973Z,48.51
2022-08-27T11:53:42.795Z,48.92
2022-08-27T11:56:40.378Z,49.66
2022-08-27T11:59:28.061Z,49.73
2022-08-27T12:01:58.968Z,49.18
2022-08-27T12:04:31.846Z,48.86
2022-08-27T12:07:13.959Z,48.97
2022-08-27T12:10:08.963Z,49.36
2022-08-27T12:13:07.375Z,49.12
2022-08-27T12:15:57.332Z,49.09
2022-08-27T12:18:49.676Z,48.88
2022-08-27T12:21:45.136Z,49.45
2022-08-27T12:24:49.429Z,49.64
2022-08-27T12:27:22.018Z,49.84
2022-08-27T12:29:55.665Z,49.87
2022-08-27T12:32:41.535Z,50.22
2022-08-27T12:35:10.988Z,51.12
2022-08-27T12:37:57.776Z,50.64
2022-08-27T12:41:03.729Z,51.14
2022-08-27T12:43:34.914Z,50.52
2022-08-27T12:46:16.202Z,51.12
2022-08-27T12:48:50.651Z,51.00
2022-08-27T12:51:31.216Z,51.43
2022-08-27T12:54:35.416Z,51.18
2022-08-27T12:57:32.475Z,51.49
2022-08-27T13:00:18.678Z,51.91
2022-08-27T13:02:51.133Z,51.56
2022-08-27T13:05:21.560Z,52.01
2022-08-27T13:07:51.361Z,51.87
2022-08-27T13:10:29.220Z,52.34
2022-08-27T13:13:10.367Z,52.19
2022-08-27T13:15:48.334Z,51.46
2022-08-27T13:18:17.037Z,52.10
2022-08-27T13:20:46.980Z,51.91
2022-08-27T13:23:23.845Z,51.75
2022-08-27T13:26:10.215Z,51.53
2022-08-27T13:28:40.840Z,51.88
2022-08-27T13:31:10.215Z,52.68
2022-08-27T13:33:40.272Z,52.87
2022-08-27T13:36:09.564Z,52.91
2022-08-27T13:38:49.292Z,53.44
2022-08-27T13:41:33.216Z,53.74
2022-08-27T13:44:13.052Z,53.32
2022-08-27T13:46:49.096Z,53.23
2022-08-27T13:49:24.688Z,52.40
2022-08-27T13:52:09.151Z,52.47
2022-08-27T13:54:36.418Z,52.28
2022-08-27T13:57:09.833Z,51.17
2022-08-27T13:59:43.030Z,51.37
2022-08-27T14:02:10.316Z,51.35
2022-08-27T14:04:49.058Z,50.98
2022-08-27T14:07:18.628Z,51.31
2022-08-27T14:10:02.389Z,51.22
2022-08-27T14:12:40.646Z,51.92
2022-08-27T14:15:41.529Z,51.14
2022-08-27T14:18:54.955Z,51.02
2022-08-27T14:21:18.818Z,51.35
2022-08-27T14:23:45.868Z,50.79
2022-08-27T14:26:14.738Z,50.39
2022-08-27T14:28:42.539Z,50.13
2022-08-27T14:31:09.546Z,49.42
2022-08-27T14:33:36.530Z,50.06
2022-08-27T14:36:03.887Z,49.70
2022-08-27T14:38:32.435Z,49.30
2022-08-27T14:41:00.205Z,49.03
2022-08-27T14:43:27.281Z,50.29
2022-08-27T14:45:55.158Z,50.14
2022-08-27T14:48:28.839Z,49.42
2022-08-27T14:50:57.769Z,49.50
2022-08-27T14:53:26.344Z,48.49
2022-08-27T14:55:54.553Z,49.33
2022-08-27T14:58:21.988Z,49.28
2022-08-27T15:00:49.298Z,49.51
2022-08-27T15:03:16.240Z,49.83
2022-08-27T15:05:43.151Z,49.40
2022-08-27T15:08:13.242Z,50.06
2022-08-27T15:10:40.410Z,50.11
2022-08-27T15:13:09.431Z,50.47
2022-08-27T15:15:36.353Z,50.75
2022-08-27T15:18:03.596Z,50.90
2022-08-27T15:20:30.701Z,51.21
2022-08-27T15:22:58.695Z,51.00
2022-08-27T15:25:25.982Z,51.60
2022-08-27T15:27:54.307Z,51.14
2022-08-27T15:30:26.705Z,51.69
2022-08-27T15:32:54.593Z,52.11
2022-08-27T15:35:26.700Z,53.22
2022-08-27T15:37:56.195Z,53.04
2022-08-27T15:40:25.499Z,53.13
2022-08-27T15:42:58.423Z,53.44
2022-08-27T15:45:27.554Z,54.25
2022-08-27T15:47:56.336Z,53.79
2022-08-27T15:50:24.526Z,54.41
2022-08-27T15:52:56.187Z,54.76
2022-08-27T15:55:28.479Z,55.37
2022-08-27T15:57:55.507Z,55.01
2022-08-27T16:00:24.277Z,55.33
2022-08-27T16:02:52.737Z,55.04
2022-08-27T16:05:21.950Z,55.15
2022-08-27T16:07:49.416Z,55.08
2022-08-27T16:10:16.622Z,54.64
2022-08-27T16:12:44.465Z,55.23
2022-08-27T16:15:12.151Z,54.67
2022-08-27T16:17:39.312Z,55.54
2022-08-27T16:20:08.912Z,55.06
2022-08-27T16:22:36.074Z,55.25
2022-08-27T16:25:05.735Z,55.07
2022-08-27T16:27:33.260Z,55.46
2022-08-27T16:30:00.296Z,55.47
2022-08-27T16:32:28.845Z,55.64
2022-08-27T16:34:56.253Z,55.89
2022-08-27T16:37:24.978Z,55.37
2022-08-27T16:39:51.931Z,55.29
2022-08-27T16:42:19.034Z,55.18
2022-08-27T16:44:45.922Z,55.20
2022-08-27T16:47:13.085Z,55.45
2022-08-27T16:49:58.569Z,55.32
2022-08-27T16:52:25.691Z,54.96
2022-08-27T16:54:52.831Z,55.49
2022-08-27T16:57:19.841Z,55.43
2022-08-27T16:59:46.736Z,55.88
2022-08-27T17:02:30.081Z,55.89
2022-08-27T17:05:12.242Z,55.21
2022-08-27T17:07:48.192Z,55.79
2022-08-27T17:10:20.120Z,55.16
2022-08-27T17:12:48.231Z,55.50
2022-08-27T17:15:18.319Z,55.56
2022-08-27T17:17:46.162Z,55.52
2022-08-27T17:20:14.953Z,55.13
2022-08-27T17:22:42.287Z,55.76
2022-08-27T17:25:10.301Z,55.56
2022-08-27T17:27:37.296Z,55.86
2022-08-27T17:30:05.730Z,56.32
2022-08-27T17:32:37.633Z,56.03
2022-08-27T17:35:07.297Z,55.91
2022-08-27T17:37:34.793Z,56.46
2022-08-27T17:40:02.035Z,56.41
2022-08-27T17:42:29.596Z,56.47
2022-08-27T17:44:56.985Z,56.74
2022-08-27T17:47:24.891Z,56.85
2022-08-27T17:49:52.676Z,56.83
2022-08-27T17:52:20.459Z,56.77
2022-08-27T17:54:52.004Z,57.03
2022-08-27T17:57:23.329Z,57.00
2022-08-27T17:59:51.127Z,57.39
2022-08-27T18:02:39.818Z,57.19
2022-08-27T18:05:13.137Z,57.35
2022-08-27T18:07:42.290Z,57.68
2022-08-27T18:10:13.473Z,58.28
2022-08-27T18:12:42.065Z,58.18
2022-08-27T18:15:28.899Z,58.58
2022-08-27T18:17:57.249Z,58.77
2022-08-27T18:20:28.357Z,58.25
2022-08-27T18:22:55.808Z,58.67
2022-08-27T18:25:26.730Z,58.66
2022-08-27T18:27:58.712Z,58.61
2022-08-27T18:30:26.511Z,58.90
2022-08-27T18:32:54.036Z,59.04
2022-08-27T18:35:29.390Z,58.83
2022-08-27T18:37:56.405Z,59.72
2022-08-27T18:40:32.155Z,59.22
2022-08-27T18:42:59.208Z,58.98
2022-08-27T18:45:28.787Z,59.05
2022-08-27T18:47:59.204Z,59.40
2022-08-27T18:50:27.416Z,59.22
2022-08-27T18:52:56.413Z,59.83
2022-08-27T18:55:27.522Z,59.61
2022-08-27T18:57:54.479Z,59.93
2022-08-27T19:00:21.852Z,60.24
2022-08-27T19:02:52.702Z,60.57
2022-08-27T19:05:25.305Z,60.18
2022-08-27T19:07:54.516Z,60.38
2022-08-27T19:10:21.666Z,60.19
2022-08-27T19:12:48.899Z,60.10
2022-08-27T19:15:16.103Z,59.97
2022-08-27T19:17:47.625Z,60.40
2022-08-27T19:20:17.311Z,60.70
2022-08-27T19:22:45.210Z,60.36
2022-08-27T19:25:13.265Z,60.62
2022-08-27T19:27:40.489Z,60.29
2022-08-27T19:30:08.500Z,60.72
2022-08-27T19:32:35.465Z,60.59
2022-08-27T19:35:02.361Z,60.16
2022-08-27T19:37:31.088Z,60.75
2022-08-27T19:39:58.405Z,60.38
2022-08-27T19:42:25.278Z,60.40
2022-08-27T19:44:52.310Z,60.81
2022-08-27T19:47:25.598Z,60.79
2022-08-27T19:49:53.814Z,60.76
2022-08-27T19:52:21.065Z,61.37
2022-08-27T19:55:10.256Z,60.61
2022-08-27T19:57:35.960Z,60.64
2022-08-27T20:00:05.529Z,60.67
2022-08-27T20:02:32.381Z,60.46
2022-08-27T20:05:16.911Z,60.59
2022-08-27T20:07:44.477Z,61.46
2022-08-27T20:10:11.358Z,61.28
2022-08-27T20:12:38.350Z,61.49
2022-08-27T20:15:07.211Z,61.17
2022-08-27T20:17:35.315Z,61.18
2022-08-27T20:20:02.404Z,61.22
2022-08-27T20:22:29.296Z,60.92
2022-08-27T20:24:56.158Z,60.90
2022-08-27T20:27:23.210Z,61.62
2022-08-27T20:29:50.095Z,61.88
2022-08-27T20:32:17.035Z,61.11
2022-08-27T20:34:44.328Z,61.31
2022-08-27T20:37:11.621Z,61.39
2022-08-27T20:39:38.749Z,61.84
2022-08-27T20:42:06.092Z,61.68
2022-08-27T20:44:33.009Z,61.71
2022-08-27T20:47:02.503Z,61.20
2022-08-27T20:49:29.837Z,61.57
2022-08-27T20:52:03.033Z,61.92
2022-08-27T20:54:33.668Z,61.50
2022-08-27T20:57:01.101Z,61.81
2022-08-27T20:59:46.872Z,61.18
2022-08-27T21:02:16.188Z,60.98
2022-08-27T21:04:46.489Z,61.03
2022-08-27T21:07:18.026Z,60.67
2022-08-27T21:09:56.380Z,60.38
2022-08-27T21:12:28.656Z,59.87
2022-08-27T21:14:56.745Z,60.09
2022-08-27T21:17:27.673Z,60.44
2022-08-27T21:19:55.787Z,60.81
2022-08-27T21:22:24.496Z,60.65
2022-08-27T21:24:52.152Z,60.67
2022-08-27T21:27:21.236Z,60.66
2022-08-27T21:29:48.636Z,60.30
2022-08-27T21:32:16.273Z,59.95
2022-08-27T21:34:43.320Z,60.47
2022-08-27T21:37:13.570Z,60.83
2022-08-27T21:39:42.783Z,60.30
2022-08-27T21:42:12.282Z,60.54
2022-08-27T21:44:39.795Z,60.03
2022-08-27T21:47:06.997Z,60.16
2022-08-27T21:49:34.532Z,59.99
2022-08-27T21:52:06.153Z,60.53
2022-08-27T21:54:37.495Z,60.49
2022-08-27T21:57:06.551Z,59.48
2022-08-27T21:59:40.662Z,59.65
2022-08-27T22:02:28.821Z,59.93
2022-08-27T22:04:55.396Z,59.91
2022-08-27T22:07:24.150Z,59.74
2022-08-27T22:09:51.013Z,59.95
2022-08-27T22:12:17.888Z,59.36
2022-08-27T22:14:44.749Z,59.51
2022-08-27T22:17:15.590Z,59.67
2022-08-27T22:19:42.934Z,59.62
2022-08-27T22:22:09.828Z,60.26
2022-08-27T22:24:36.796Z,60.02
2022-08-27T22:27:03.929Z,59.69
2022-08-27T22:29:30.821Z,59.92
2022-08-27T22:31:57.731Z,59.51
2022-08-27T22:34:24.582Z,60.15
2022-08-27T22:36:51.509Z,59.72
2022-08-27T22:39:18.503Z,59.92
2022-08-27T22:41:48.597Z,59.67
2022-08-27T22:44:16.104Z,59.99
2022-08-27T22:46:43.198Z,59.71
2022-08-27T22:49:10.141Z,60.05
2022-08-27T22:51:37.052Z,59.99
2022-08-27T22:54:04.071Z,60.06
2022-08-27T22:56:31.027Z,59.66
2022-08-27T22:58:57.906Z,60.92
2022-08-27T23:01:25.046Z,60.35
2022-08-27T23:03:53.841Z,59.95
2022-08-27T23:06:20.955Z,60.32
2022-08-27T23:08:48.181Z,60.27
2022-08-27T23:11:15.972Z,60.64
2022-08-27T23:13:42.851Z,60.53
2022-08-27T23:16:10.070Z,60.30
2022-08-27T23:18:38.848Z,60.04
2022-08-27T23:21:06.613Z,59.89
2022-08-27T23:23:34.709Z,59.98
2022-08-27T23:26:20.454Z,59.74
2022-08-27T23:28:47.694Z,59.99
2022-08-27T23:31:15.318Z,60.48
2022-08-27T23:33:42.814Z,59.74
2022-08-27T23:36:09.958Z,60.42
2022-08-27T23:38:37.387Z,60.63
2022-08-27T23:41:05.614Z,59.85
2022-08-27T23:43:32.436Z,60.53
2022-08-27T23:45:59.462Z,60.48
2022-08-27T23:48:26.727Z,59.82
2022-08-27T23:50:53.634Z,60.56
2022-08-27T23:53:20.634Z,60.27
2022-08-27T23:55:47.616Z,60.24
2022-08-27T23:58:14.871Z,60.44
